Terminal Aerodrome Forecast
Issued by NWS

Home | Current Version | Previous Version | Graphics & Text | Print | Product List | Glossary On
Versions: 1 2 3 4 5 6 7 8 9 10 11 12 13 14 15 16 17 18 19 20
290
FTUS43 KGRB 261739
TAFAUW
TAF
KAUW 261739Z 2618/2718 06010G17KT P6SM BKN016
     FM262200 07009G15KT P6SM BKN022 BKN060
     FM270100 06007KT P6SM SCT070
     FM270700 08005KT P6SM SCT250
     FM271500 09010G18KT P6SM BKN250=

USA.gov is the U.S. government's official web portal to all federal, state and local government web resources and services.